createdAt,value
2022-08-27T00:00:49.850Z,17.96
2022-08-27T00:03:17.738Z,17.96
2022-08-27T00:05:44.851Z,17.91
2022-08-27T00:08:13.524Z,17.93
2022-08-27T00:10:41.469Z,17.92
2022-08-27T00:13:08.577Z,17.91
2022-08-27T00:15:35.801Z,17.90
2022-08-27T00:18:02.510Z,17.86
2022-08-27T00:20:29.296Z,17.84
2022-08-27T00:22:56.374Z,17.87
2022-08-27T00:25:23.481Z,17.86
2022-08-27T00:27:50.477Z,17.89
2022-08-27T00:30:20.289Z,17.85
2022-08-27T00:32:47.311Z,17.85
2022-08-27T00:35:16.058Z,17.82
2022-08-27T00:37:43.873Z,17.80
2022-08-27T00:40:15.877Z,17.77
2022-08-27T00:42:45.960Z,17.76
2022-08-27T00:45:15.378Z,17.76
2022-08-27T00:47:46.568Z,17.79
2022-08-27T00:50:17.979Z,17.76
2022-08-27T00:52:49.094Z,17.78
2022-08-27T00:55:22.435Z,17.80
2022-08-27T00:58:13.197Z,17.78
2022-08-27T01:00:40.154Z,17.80
2022-08-27T01:03:07.859Z,17.80
2022-08-27T01:05:37.038Z,17.79
2022-08-27T01:08:10.175Z,17.75
2022-08-27T01:10:39.489Z,17.72
2022-08-27T01:13:12.559Z,17.69
2022-08-27T01:15:41.314Z,17.68
2022-08-27T01:18:09.303Z,17.69
2022-08-27T01:21:01.335Z,17.65
2022-08-27T01:23:30.425Z,17.64
2022-08-27T01:25:59.091Z,17.61
2022-08-27T01:28:29.236Z,17.59
2022-08-27T01:31:08.290Z,17.48
2022-08-27T01:33:35.334Z,17.52
2022-08-27T01:36:02.836Z,17.54
2022-08-27T01:38:30.736Z,17.54
2022-08-27T01:41:00.168Z,17.57
2022-08-27T01:43:28.313Z,17.58
2022-08-27T01:45:54.953Z,17.56
2022-08-27T01:48:22.213Z,17.56
2022-08-27T01:50:49.400Z,17.53
2022-08-27T01:53:21.252Z,17.50
2022-08-27T01:55:50.004Z,17.49
2022-08-27T01:58:18.566Z,17.49
2022-08-27T02:00:50.121Z,17.45
2022-08-27T02:03:22.889Z,17.42
2022-08-27T02:05:49.632Z,17.40
2022-08-27T02:08:17.748Z,17.38
2022-08-27T02:10:46.290Z,17.36
2022-08-27T02:13:13.478Z,17.34
2022-08-27T02:15:41.572Z,17.34
2022-08-27T02:18:09.116Z,17.33
2022-08-27T02:20:36.793Z,17.30
2022-08-27T02:23:04.848Z,17.26
2022-08-27T02:25:32.045Z,17.20
2022-08-27T02:28:00.398Z,17.15
2022-08-27T02:30:29.635Z,17.10
2022-08-27T02:32:56.472Z,17.07
2022-08-27T02:35:24.618Z,16.98
2022-08-27T02:37:52.541Z,16.93
2022-08-27T02:40:22.439Z,16.88
2022-08-27T02:42:49.920Z,16.86
2022-08-27T02:45:17.777Z,16.88
2022-08-27T02:47:44.818Z,16.88
2022-08-27T02:50:13.603Z,16.85
2022-08-27T02:52:41.477Z,16.84
2022-08-27T02:55:08.698Z,16.84
2022-08-27T02:57:36.734Z,16.84
2022-08-27T03:00:18.014Z,16.82
2022-08-27T03:02:45.313Z,16.81
2022-08-27T03:05:13.408Z,16.76
2022-08-27T03:07:40.901Z,16.71
2022-08-27T03:10:09.424Z,16.71
2022-08-27T03:12:36.581Z,16.69
2022-08-27T03:15:10.226Z,16.67
2022-08-27T03:17:55.659Z,16.62
2022-08-27T03:20:23.565Z,16.59
2022-08-27T03:22:50.392Z,16.53
2022-08-27T03:25:17.217Z,16.52
2022-08-27T03:27:44.128Z,16.46
2022-08-27T03:30:18.491Z,16.44
2022-08-27T03:32:45.460Z,16.44
2022-08-27T03:35:13.295Z,16.45
2022-08-27T03:37:40.297Z,16.39
2022-08-27T03:40:08.299Z,16.33
2022-08-27T03:42:36.206Z,16.28
2022-08-27T03:45:03.861Z,16.25
2022-08-27T03:47:30.548Z,16.24
2022-08-27T03:49:57.288Z,16.20
2022-08-27T03:52:23.938Z,16.19
2022-08-27T03:54:50.763Z,16.17
2022-08-27T03:57:17.541Z,16.15
2022-08-27T03:59:44.618Z,16.14
2022-08-27T04:02:11.943Z,16.12
2022-08-27T04:04:41.798Z,16.13
2022-08-27T04:07:10.575Z,16.11
2022-08-27T04:09:37.293Z,16.09
2022-08-27T04:12:04.075Z,16.07
2022-08-27T04:14:31.114Z,16.05
2022-08-27T04:16:58.028Z,16.04
2022-08-27T04:19:28.525Z,16.06
2022-08-27T04:22:00.528Z,16.04
2022-08-27T04:24:27.646Z,16.05
2022-08-27T04:26:54.425Z,16.03
2022-08-27T04:29:21.103Z,16.06
2022-08-27T04:31:48.157Z,16.06
2022-08-27T04:34:16.568Z,16.06
2022-08-27T04:36:43.185Z,15.93
2022-08-27T04:39:09.984Z,15.96
2022-08-27T04:41:36.594Z,15.98
2022-08-27T04:44:09.833Z,16.01
2022-08-27T04:46:39.209Z,16.04
2022-08-27T04:49:10.237Z,16.06
2022-08-27T04:51:40.095Z,16.03
2022-08-27T04:54:08.587Z,16.05
2022-08-27T04:56:36.962Z,16.04
2022-08-27T04:59:04.753Z,15.96
2022-08-27T05:01:31.986Z,16.04
2022-08-27T05:03:58.985Z,16.07
2022-08-27T05:06:26.479Z,16.09
2022-08-27T05:08:54.469Z,16.09
2022-08-27T05:11:23.230Z,16.12
2022-08-27T05:13:50.272Z,16.13
2022-08-27T05:16:20.719Z,16.10
2022-08-27T05:18:48.934Z,16.09
2022-08-27T05:21:19.007Z,16.06
2022-08-27T05:23:45.852Z,16.03
2022-08-27T05:26:12.544Z,16.02
2022-08-27T05:28:39.458Z,16.02
2022-08-27T05:31:11.310Z,16.04
2022-08-27T05:33:39.509Z,16.04
2022-08-27T05:36:07.786Z,16.03
2022-08-27T05:38:35.034Z,16.00
2022-08-27T05:41:10.976Z,15.96
2022-08-27T05:43:39.119Z,15.92
2022-08-27T05:46:08.264Z,15.88
2022-08-27T05:48:37.058Z,15.85
2022-08-27T05:51:31.537Z,15.73
2022-08-27T05:54:04.553Z,15.74
2022-08-27T05:56:35.961Z,15.75
2022-08-27T05:59:21.171Z,15.78
2022-08-27T06:01:50.339Z,15.80
2022-08-27T06:04:18.788Z,15.87
2022-08-27T06:06:46.695Z,15.89
2022-08-27T06:09:16.718Z,15.86
2022-08-27T06:11:44.188Z,15.84
2022-08-27T06:14:11.240Z,15.83
2022-08-27T06:16:39.581Z,15.83
2022-08-27T06:19:07.100Z,15.74
2022-08-27T06:21:34.886Z,15.83
2022-08-27T06:24:01.746Z,15.87
2022-08-27T06:26:28.442Z,15.91
2022-08-27T06:28:55.561Z,15.94
2022-08-27T06:31:27.601Z,15.95
2022-08-27T06:33:58.954Z,16.00
2022-08-27T06:36:37.038Z,16.05
2022-08-27T06:39:04.877Z,16.08
2022-08-27T06:41:32.914Z,16.11
2022-08-27T06:43:59.815Z,16.16
2022-08-27T06:46:29.777Z,16.19
2022-08-27T06:48:59.041Z,16.26
2022-08-27T06:51:31.878Z,16.31
2022-08-27T06:54:01.494Z,16.35
2022-08-27T06:56:29.247Z,16.38
2022-08-27T06:58:58.278Z,16.45
2022-08-27T07:01:31.370Z,16.47
2022-08-27T07:04:02.190Z,16.52
2022-08-27T07:06:30.374Z,16.57
2022-08-27T07:08:57.667Z,16.62
2022-08-27T07:11:25.392Z,16.65
2022-08-27T07:13:52.664Z,16.69
2022-08-27T07:16:23.365Z,16.74
2022-08-27T07:18:52.824Z,16.80
2022-08-27T07:21:20.576Z,16.84
2022-08-27T07:23:48.932Z,16.89
2022-08-27T07:26:16.123Z,16.86
2022-08-27T07:28:44.444Z,16.91
2022-08-27T07:31:13.129Z,16.95
2022-08-27T07:33:42.131Z,17.02
2022-08-27T07:36:17.440Z,17.12
2022-08-27T07:38:44.397Z,17.17
2022-08-27T07:41:23.715Z,17.23
2022-08-27T07:44:15.669Z,17.33
2022-08-27T07:46:47.589Z,17.39
2022-08-27T07:49:16.429Z,17.45
2022-08-27T07:51:43.013Z,17.51
2022-08-27T07:54:10.027Z,17.59
2022-08-27T07:56:36.817Z,17.67
2022-08-27T07:59:03.598Z,17.72
2022-08-27T08:01:30.485Z,17.78
2022-08-27T08:03:57.393Z,17.84
2022-08-27T08:06:24.077Z,17.89
2022-08-27T08:08:50.906Z,17.93
2022-08-27T08:11:20.098Z,17.95
2022-08-27T08:13:47.986Z,17.99
2022-08-27T08:16:14.942Z,18.02
2022-08-27T08:18:41.719Z,18.04
2022-08-27T08:21:11.650Z,18.08
2022-08-27T08:23:38.677Z,18.11
2022-08-27T08:26:06.273Z,18.12
2022-08-27T08:28:32.975Z,18.12
2022-08-27T08:30:59.904Z,18.17
2022-08-27T08:33:27.869Z,18.20
2022-08-27T08:35:54.834Z,18.24
2022-08-27T08:38:21.866Z,18.29
2022-08-27T08:40:53.440Z,18.33
2022-08-27T08:43:40.140Z,18.34
2022-08-27T08:46:40.174Z,18.39
2022-08-27T08:49:25.266Z,18.43
2022-08-27T08:51:56.230Z,18.46
2022-08-27T08:54:30.644Z,18.51
2022-08-27T08:57:06.821Z,18.55
2022-08-27T08:59:44.760Z,18.57
2022-08-27T09:02:15.399Z,18.61
2022-08-27T09:04:43.686Z,18.66
2022-08-27T09:07:17.229Z,18.67
2022-08-27T09:09:50.562Z,18.70
2022-08-27T09:12:22.607Z,18.75
2022-08-27T09:14:53.976Z,18.78
2022-08-27T09:17:20.890Z,18.80
2022-08-27T09:19:48.406Z,18.83
2022-08-27T09:22:38.385Z,18.88
2022-08-27T09:25:25.386Z,18.92
2022-08-27T09:27:59.640Z,18.94
2022-08-27T09:30:33.973Z,18.96
2022-08-27T09:33:06.919Z,18.99
2022-08-27T09:35:42.662Z,19.04
2022-08-27T09:38:10.149Z,19.10
2022-08-27T09:40:49.088Z,19.13
2022-08-27T09:43:16.954Z,19.21
2022-08-27T09:45:48.872Z,19.22
2022-08-27T09:48:20.236Z,19.21
2022-08-27T09:50:51.362Z,19.16
2022-08-27T09:53:32.117Z,19.12
2022-08-27T09:56:01.702Z,19.15
2022-08-27T09:58:44.494Z,19.16
2022-08-27T10:01:24.330Z,19.19
2022-08-27T10:03:51.564Z,19.20
2022-08-27T10:06:31.930Z,19.21
2022-08-27T10:09:13.656Z,19.22
2022-08-27T10:12:19.473Z,19.26
2022-08-27T10:14:52.531Z,19.34
2022-08-27T10:17:28.179Z,19.43
2022-08-27T10:20:04.081Z,19.46
2022-08-27T10:22:45.910Z,19.48
2022-08-27T10:25:40.177Z,19.56
2022-08-27T10:28:16.749Z,19.66
2022-08-27T10:30:52.832Z,19.72
2022-08-27T10:33:43.601Z,19.78
2022-08-27T10:36:44.711Z,19.87
2022-08-27T10:39:52.528Z,19.98
2022-08-27T10:42:43.465Z,20.06
2022-08-27T10:45:10.166Z,20.18
2022-08-27T10:47:53.147Z,20.26
2022-08-27T10:50:40.979Z,20.31
2022-08-27T10:53:30.267Z,20.33
2022-08-27T10:56:25.733Z,20.40
2022-08-27T10:59:12.641Z,20.50
2022-08-27T11:02:11.529Z,20.60
2022-08-27T11:04:46.289Z,20.71
2022-08-27T11:07:36.091Z,20.76
2022-08-27T11:10:07.425Z,20.87
2022-08-27T11:12:41.542Z,20.88
2022-08-27T11:15:19.409Z,20.88
2022-08-27T11:18:04.714Z,20.79
2022-08-27T11:20:40.193Z,20.79
2022-08-27T11:23:12.398Z,20.80
2022-08-27T11:25:39.594Z,20.87
2022-08-27T11:28:07.786Z,20.95
2022-08-27T11:30:43.013Z,21.06
2022-08-27T11:33:18.781Z,21.14
2022-08-27T11:36:19.874Z,21.11
2022-08-27T11:39:01.770Z,21.03
2022-08-27T11:41:59.850Z,20.95
2022-08-27T11:44:27.325Z,20.89
2022-08-27T11:47:25.603Z,20.80
2022-08-27T11:49:56.071Z,20.76
2022-08-27T11:52:29.350Z,20.69
2022-08-27T11:55:21.219Z,20.65
2022-08-27T11:58:07.558Z,20.61
2022-08-27T12:00:37.849Z,20.59
2022-08-27T12:03:25.899Z,20.56
2022-08-27T12:05:55.352Z,20.54
2022-08-27T12:08:22.053Z,20.69
2022-08-27T12:11:11.925Z,20.80
2022-08-27T12:14:03.620Z,20.98
2022-08-27T12:16:47.407Z,21.05
2022-08-27T12:19:21.825Z,21.07
2022-08-27T12:22:25.528Z,21.04
2022-08-27T12:24:56.107Z,21.00
2022-08-27T12:27:25.838Z,20.95
2022-08-27T12:29:57.118Z,20.89
2022-08-27T12:32:36.030Z,20.87
2022-08-27T12:35:35.229Z,20.82
2022-08-27T12:38:17.657Z,20.79
2022-08-27T12:41:00.385Z,20.76
2022-08-27T12:43:29.618Z,20.87
2022-08-27T12:46:03.840Z,20.98
2022-08-27T12:48:46.285Z,21.08
2022-08-27T12:51:36.260Z,21.16
2022-08-27T12:54:51.420Z,21.27
2022-08-27T12:57:42.202Z,21.37
2022-08-27T13:00:19.271Z,21.47
2022-08-27T13:03:31.959Z,21.62
2022-08-27T13:06:00.913Z,21.71
2022-08-27T13:08:34.669Z,21.81
2022-08-27T13:11:12.745Z,21.90
2022-08-27T13:13:41.390Z,21.97
2022-08-27T13:16:08.234Z,22.02
2022-08-27T13:18:36.714Z,22.03
2022-08-27T13:21:07.154Z,21.98
2022-08-27T13:23:35.273Z,21.95
2022-08-27T13:26:09.789Z,22.02
2022-08-27T13:28:40.190Z,22.16
2022-08-27T13:31:09.765Z,22.33
2022-08-27T13:33:39.075Z,22.43
2022-08-27T13:36:06.855Z,22.37
2022-08-27T13:38:47.855Z,22.28
2022-08-27T13:41:29.253Z,22.16
2022-08-27T13:43:59.399Z,22.10
2022-08-27T13:46:29.980Z,22.17
2022-08-27T13:48:59.320Z,22.23
2022-08-27T13:51:32.372Z,22.20
2022-08-27T13:54:14.450Z,22.18
2022-08-27T13:56:47.210Z,22.31
2022-08-27T13:59:26.720Z,22.48
2022-08-27T14:02:11.503Z,22.69
2022-08-27T14:04:44.337Z,22.85
2022-08-27T14:07:19.828Z,22.97
2022-08-27T14:09:55.938Z,23.06
2022-08-27T14:12:37.159Z,23.00
2022-08-27T14:15:16.312Z,22.86
2022-08-27T14:17:46.013Z,22.77
2022-08-27T14:20:13.738Z,22.80
2022-08-27T14:22:40.975Z,22.90
2022-08-27T14:25:09.323Z,22.95
2022-08-27T14:27:37.569Z,23.00
2022-08-27T14:30:05.583Z,22.96
2022-08-27T14:32:33.399Z,22.95
2022-08-27T14:35:00.169Z,22.99
2022-08-27T14:37:27.029Z,23.05
2022-08-27T14:39:53.742Z,23.07
2022-08-27T14:42:21.627Z,23.06
2022-08-27T14:44:50.571Z,23.00
2022-08-27T14:47:17.403Z,22.95
2022-08-27T14:49:47.065Z,23.00
2022-08-27T14:52:15.041Z,23.07
2022-08-27T14:54:42.911Z,23.21
2022-08-27T14:57:10.993Z,23.35
2022-08-27T15:02:08.210Z,23.59
2022-08-27T15:04:34.923Z,23.69
2022-08-27T15:07:01.958Z,23.79
2022-08-27T15:09:28.969Z,23.90
2022-08-27T15:11:57.284Z,23.90
2022-08-27T15:14:33.369Z,23.92
2022-08-27T15:17:00.650Z,23.96
2022-08-27T15:19:28.960Z,24.03
2022-08-27T15:22:04.165Z,23.96
2022-08-27T15:24:38.542Z,23.82
2022-08-27T15:27:05.462Z,23.71
2022-08-27T15:29:33.767Z,23.56
2022-08-27T15:32:00.679Z,23.43
2022-08-27T15:34:27.448Z,23.34
2022-08-27T15:36:54.161Z,23.40
2022-08-27T15:39:21.046Z,23.54
2022-08-27T15:42:05.696Z,23.70
2022-08-27T15:44:33.269Z,23.92
2022-08-27T15:47:00.082Z,24.06
2022-08-27T15:49:27.103Z,24.21
2022-08-27T15:51:55.322Z,24.35
2022-08-27T15:54:26.521Z,24.44
2022-08-27T15:56:53.153Z,24.57
2022-08-27T15:59:19.782Z,24.67
2022-08-27T16:01:50.025Z,24.76
2022-08-27T16:04:17.513Z,24.85
2022-08-27T16:06:44.760Z,24.94
2022-08-27T16:09:11.714Z,25.00
2022-08-27T16:11:38.362Z,25.10
2022-08-27T16:14:05.152Z,25.20
2022-08-27T16:16:32.836Z,25.26
2022-08-27T16:19:05.202Z,25.35
2022-08-27T16:21:34.943Z,25.42
2022-08-27T16:24:02.259Z,25.50
2022-08-27T16:26:29.202Z,25.62
2022-08-27T16:28:56.040Z,25.70
2022-08-27T16:31:22.814Z,25.76
2022-08-27T16:33:49.866Z,25.84
2022-08-27T16:36:16.699Z,25.90
2022-08-27T16:38:43.323Z,25.95
2022-08-27T16:41:10.366Z,26.03
2022-08-27T16:43:39.632Z,26.08
2022-08-27T16:46:07.615Z,26.15
2022-08-27T16:48:56.741Z,26.26
2022-08-27T16:51:34.480Z,26.35
2022-08-27T16:54:06.280Z,26.45
2022-08-27T16:56:37.106Z,26.45
2022-08-27T16:59:04.958Z,26.34
2022-08-27T17:01:33.363Z,26.33
2022-08-27T17:04:28.468Z,26.38
2022-08-27T17:06:54.930Z,26.45
2022-08-27T17:09:22.875Z,26.46
2022-08-27T17:11:57.193Z,26.32
2022-08-27T17:14:24.645Z,26.30
2022-08-27T17:16:53.825Z,26.30
2022-08-27T17:19:26.234Z,26.33
2022-08-27T17:21:54.890Z,26.33
2022-08-27T17:24:21.892Z,26.33
2022-08-27T17:26:49.007Z,26.32
2022-08-27T17:29:15.668Z,26.08
2022-08-27T17:31:43.576Z,25.82
2022-08-27T17:34:16.031Z,25.49
2022-08-27T17:36:44.379Z,25.23
2022-08-27T17:39:11.718Z,25.02
2022-08-27T17:41:44.123Z,24.85
2022-08-27T17:44:10.760Z,24.71
2022-08-27T17:46:37.446Z,24.55
2022-08-27T17:49:04.745Z,24.37
2022-08-27T17:51:31.490Z,24.24
2022-08-27T17:54:01.106Z,24.12
2022-08-27T17:56:29.230Z,24.04
2022-08-27T17:58:56.833Z,23.87
2022-08-27T18:01:31.188Z,23.76
2022-08-27T18:03:58.967Z,23.63
2022-08-27T18:06:27.384Z,23.52
2022-08-27T18:08:54.554Z,23.44
2022-08-27T18:11:21.490Z,23.38
2022-08-27T18:13:54.261Z,23.30
2022-08-27T18:16:22.034Z,23.24
2022-08-27T18:18:49.067Z,23.19
2022-08-27T18:21:24.943Z,23.10
2022-08-27T18:23:52.786Z,23.01
2022-08-27T18:26:21.738Z,22.92
2022-08-27T18:28:49.072Z,22.80
2022-08-27T18:31:18.538Z,22.67
2022-08-27T18:33:45.399Z,22.63
2022-08-27T18:36:12.341Z,22.59
2022-08-27T18:38:39.221Z,22.53
2022-08-27T18:41:08.423Z,22.50
2022-08-27T18:43:36.469Z,22.42
2022-08-27T18:46:04.133Z,22.40
2022-08-27T18:48:31.305Z,22.37
2022-08-27T18:51:00.059Z,22.31
2022-08-27T18:53:30.987Z,22.24
2022-08-27T18:55:58.093Z,22.20
2022-08-27T18:58:25.211Z,22.10
2022-08-27T19:00:55.815Z,21.99
2022-08-27T19:03:37.408Z,21.93
2022-08-27T19:06:06.818Z,21.87
2022-08-27T19:08:36.659Z,21.80
2022-08-27T19:11:04.046Z,21.75
2022-08-27T19:13:31.513Z,21.65
2022-08-27T19:16:01.921Z,21.57
2022-08-27T19:18:31.312Z,21.52
2022-08-27T19:20:58.334Z,21.46
2022-08-27T19:23:25.275Z,21.40
2022-08-27T19:25:52.809Z,21.33
2022-08-27T19:28:25.673Z,21.30
2022-08-27T19:30:52.848Z,21.26
2022-08-27T19:33:19.501Z,21.23
2022-08-27T19:35:46.357Z,21.16
2022-08-27T19:38:14.526Z,21.14
2022-08-27T19:40:41.118Z,20.98
2022-08-27T19:43:08.346Z,21.02
2022-08-27T19:45:36.440Z,21.01
2022-08-27T19:48:07.832Z,20.94
2022-08-27T19:50:35.025Z,20.92
2022-08-27T19:53:01.747Z,20.92
2022-08-27T19:55:28.457Z,20.86
2022-08-27T19:57:55.280Z,20.79
2022-08-27T20:00:24.874Z,20.74
2022-08-27T20:02:55.019Z,20.68
2022-08-27T20:05:22.441Z,20.64
2022-08-27T20:07:51.250Z,20.58
2022-08-27T20:10:21.672Z,20.56
2022-08-27T20:12:48.795Z,20.53
2022-08-27T20:15:16.022Z,20.50
2022-08-27T20:17:43.266Z,20.44
2022-08-27T20:20:11.401Z,20.42
2022-08-27T20:22:39.857Z,20.39
2022-08-27T20:25:07.829Z,20.34
2022-08-27T20:27:35.016Z,20.25
2022-08-27T20:30:03.618Z,20.20
2022-08-27T20:32:31.061Z,20.16
2022-08-27T20:34:57.999Z,20.13
2022-08-27T20:37:24.725Z,20.10
2022-08-27T20:39:52.808Z,20.08
2022-08-27T20:42:20.468Z,20.05
2022-08-27T20:44:48.412Z,20.01
2022-08-27T20:47:16.587Z,20.00
2022-08-27T20:49:44.709Z,19.97
2022-08-27T20:52:12.947Z,19.84
2022-08-27T20:54:39.997Z,19.76
2022-08-27T20:57:06.857Z,19.80
2022-08-27T20:59:52.399Z,19.76
2022-08-27T21:02:28.247Z,19.72
2022-08-27T21:04:56.421Z,19.72
2022-08-27T21:07:24.491Z,19.69
2022-08-27T21:09:55.712Z,19.64
2022-08-27T21:12:28.325Z,19.64
2022-08-27T21:14:57.805Z,19.59
2022-08-27T21:17:26.694Z,19.58
2022-08-27T21:19:53.730Z,19.56
2022-08-27T21:22:21.459Z,19.48
2022-08-27T21:24:48.508Z,19.44
2022-08-27T21:27:17.076Z,19.42
2022-08-27T21:29:47.161Z,19.39
2022-08-27T21:32:15.140Z,19.39
2022-08-27T21:34:42.426Z,19.35
2022-08-27T21:37:11.222Z,19.34
2022-08-27T21:39:39.452Z,19.30
2022-08-27T21:42:06.637Z,19.11
2022-08-27T21:44:34.378Z,19.11
2022-08-27T21:47:01.836Z,19.06
2022-08-27T21:49:28.841Z,19.03
2022-08-27T21:51:55.813Z,19.02
2022-08-27T21:54:23.447Z,19.02
2022-08-27T21:56:52.814Z,18.99
2022-08-27T21:59:20.136Z,19.01
2022-08-27T22:01:47.026Z,18.96
2022-08-27T22:04:14.227Z,18.96
2022-08-27T22:06:40.986Z,18.92
2022-08-27T22:09:07.738Z,18.92
2022-08-27T22:11:34.861Z,18.90
2022-08-27T22:14:01.840Z,18.87
2022-08-27T22:16:29.275Z,18.83
2022-08-27T22:18:57.142Z,18.81
2022-08-27T22:21:25.191Z,18.80
2022-08-27T22:23:52.475Z,18.79
2022-08-27T22:26:21.018Z,18.78
2022-08-27T22:28:48.757Z,18.79
2022-08-27T22:31:15.803Z,18.77
2022-08-27T22:33:42.915Z,18.77
2022-08-27T22:36:09.713Z,18.74
2022-08-27T22:38:36.498Z,18.71
2022-08-27T22:41:03.518Z,18.66
2022-08-27T22:43:30.771Z,18.64
2022-08-27T22:45:57.669Z,18.62
2022-08-27T22:48:24.490Z,18.59
2022-08-27T22:50:51.728Z,18.51
2022-08-27T22:53:18.699Z,18.47
2022-08-27T22:55:49.869Z,18.42
2022-08-27T22:58:18.054Z,18.35
2022-08-27T23:00:52.556Z,18.34
2022-08-27T23:03:20.312Z,18.31
2022-08-27T23:05:47.443Z,18.29
2022-08-27T23:08:15.177Z,18.25
2022-08-27T23:10:43.340Z,18.19
2022-08-27T23:13:11.262Z,18.16
2022-08-27T23:15:38.718Z,18.12
2022-08-27T23:18:06.758Z,18.07
2022-08-27T23:20:34.530Z,17.99
2022-08-27T23:23:01.364Z,17.93
2022-08-27T23:25:48.566Z,17.87
2022-08-27T23:28:16.157Z,17.78
2022-08-27T23:30:44.867Z,17.74
2022-08-27T23:33:13.414Z,17.72
2022-08-27T23:35:44.329Z,17.66
2022-08-27T23:38:11.125Z,17.61
2022-08-27T23:40:41.057Z,17.58
2022-08-27T23:43:07.889Z,17.52
2022-08-27T23:45:39.809Z,17.47
2022-08-27T23:48:08.320Z,17.40
2022-08-27T23:50:35.414Z,17.37
2022-08-27T23:53:03.294Z,17.34
2022-08-27T23:55:30.278Z,17.30
2022-08-27T23:58:00.856Z,17.29
